Stanwood, Michigan
Current Conditions -  °F | °C
As of 4:15 AM on Wednesday 28 Jan 2015 (Local Time) from KRQB Reporting Station
Clear Clear  
Wind Chill:   Ceiling: Unl
Heat Index:   Visibility: 10mi
Dew Point:   Wind: 0mph
Humidity: 89%   Direction: NA
Pressure: 30.25"   Gusts: NA
Location:  43.58°N, 85.45°W
Report Text: KRQB 280915Z AUTO 00000KT 10SM CLR M15/M16 A3025 RMK AO2 T11501165
Loading
Personal Weather Stations






























Interactive Weather Map New forecast layout! Learn more

10-Day Weather Forecast

Advertisements
Track Severe Weather on mobile